createdAt,value
2017-07-19T00:00:10.529Z,9.43
2017-07-19T00:02:40.201Z,9.95
2017-07-19T00:05:09.072Z,10.40
2017-07-19T00:07:37.992Z,10.02
2017-07-19T00:10:06.906Z,10.57
2017-07-19T00:12:36.574Z,9.40
2017-07-19T00:15:05.481Z,10.80
2017-07-19T00:17:34.382Z,10.95
2017-07-19T00:20:03.296Z,10.20
2017-07-19T00:22:32.961Z,11.45
2017-07-19T00:25:01.860Z,12.30
2017-07-19T00:27:30.778Z,10.60
2017-07-19T00:29:59.680Z,10.65
2017-07-19T00:32:29.335Z,10.45
2017-07-19T00:34:58.249Z,10.85
2017-07-19T00:37:27.147Z,11.85
2017-07-19T00:39:56.042Z,9.90
2017-07-19T00:42:24.960Z,11.88
2017-07-19T00:44:54.630Z,10.48
2017-07-19T00:47:23.499Z,9.77
2017-07-19T00:49:52.401Z,12.88
2017-07-19T00:52:21.295Z,11.48
2017-07-19T00:54:50.198Z,11.50
2017-07-19T00:57:19.101Z,11.63
2017-07-19T00:59:48.015Z,12.32
2017-07-19T01:02:17.691Z,12.10
2017-07-19T01:04:46.610Z,11.02
2017-07-19T01:07:16.282Z,10.52
2017-07-19T01:09:45.176Z,11.70
2017-07-19T01:12:14.388Z,11.52
2017-07-19T01:14:43.285Z,11.45
2017-07-19T01:17:12.185Z,11.55
2017-07-19T01:19:41.086Z,11.55
2017-07-19T01:22:09.994Z,10.60
2017-07-19T01:24:39.667Z,11.57
2017-07-19T01:27:08.539Z,10.63
2017-07-19T01:29:37.406Z,11.75
2017-07-19T01:32:06.322Z,10.93
2017-07-19T01:34:35.237Z,10.88
2017-07-19T01:37:04.128Z,11.05
2017-07-19T01:39:32.693Z,12.07
2017-07-19T01:42:01.606Z,11.38
2017-07-19T01:44:30.512Z,11.30
2017-07-19T01:46:59.405Z,10.52
2017-07-19T01:49:28.306Z,9.65
2017-07-19T01:51:57.960Z,9.25
2017-07-19T01:54:26.526Z,10.18
2017-07-19T01:56:54.737Z,10.45
2017-07-19T01:59:23.642Z,10.82
2017-07-19T02:01:52.517Z,10.68
2017-07-19T02:04:21.426Z,9.30
2017-07-19T02:06:50.330Z,10.10
2017-07-19T02:09:19.237Z,11.12
2017-07-19T02:11:48.161Z,11.10
2017-07-19T02:14:17.056Z,11.50
2017-07-19T02:16:45.949Z,12.20
2017-07-19T02:19:14.865Z,11.52
2017-07-19T02:21:43.774Z,11.40
2017-07-19T02:24:12.664Z,11.57
2017-07-19T02:26:41.525Z,12.13
2017-07-19T02:29:10.398Z,11.10
2017-07-19T02:31:39.268Z,10.27
2017-07-19T02:34:08.173Z,12.75
2017-07-19T02:36:37.086Z,12.73
2017-07-19T02:39:05.299Z,12.15
2017-07-19T02:41:34.203Z,13.85
2017-07-19T02:44:03.100Z,12.23
2017-07-19T02:46:32.739Z,12.25
2017-07-19T02:49:01.612Z,13.50
2017-07-19T02:51:30.474Z,12.43
2017-07-19T02:53:59.383Z,12.82
2017-07-19T02:56:29.053Z,12.88
2017-07-19T02:58:57.928Z,12.80
2017-07-19T03:01:26.837Z,12.73
2017-07-19T03:03:55.853Z,13.05
2017-07-19T03:06:24.749Z,12.32
2017-07-19T03:08:53.662Z,12.60
2017-07-19T03:11:23.337Z,11.90
2017-07-19T03:13:52.241Z,12.80
2017-07-19T03:16:21.147Z,11.52
2017-07-19T03:18:50.825Z,11.45
2017-07-19T03:21:19.797Z,12.05
2017-07-19T03:23:48.707Z,12.05
2017-07-19T03:26:17.635Z,11.48
2017-07-19T03:28:47.262Z,11.12
2017-07-19T03:31:16.930Z,12.50
2017-07-19T03:33:45.838Z,13.10
2017-07-19T03:36:14.742Z,11.80
2017-07-19T03:38:44.372Z,12.00
2017-07-19T03:41:13.274Z,11.88
2017-07-19T03:43:42.139Z,10.60
2017-07-19T03:46:11.826Z,13.20
2017-07-19T03:48:40.734Z,11.98
2017-07-19T03:51:10.404Z,11.38
2017-07-19T03:53:39.317Z,12.37
2017-07-19T03:56:08.221Z,12.85
2017-07-19T03:58:37.129Z,13.02
2017-07-19T04:01:06.798Z,11.20
2017-07-19T04:03:35.701Z,11.20
2017-07-19T04:06:04.610Z,12.15
2017-07-19T04:08:33.479Z,12.02
2017-07-19T04:11:02.346Z,13.10
2017-07-19T04:13:31.261Z,13.43
2017-07-19T04:16:00.161Z,11.50
2017-07-19T04:18:29.072Z,11.60
2017-07-19T04:20:58.737Z,11.82
2017-07-19T04:23:27.727Z,11.63
2017-07-19T04:25:56.634Z,12.98
2017-07-19T04:28:25.540Z,13.00
2017-07-19T04:30:54.449Z,12.40
2017-07-19T04:33:23.349Z,11.50
2017-07-19T04:35:52.984Z,11.88
2017-07-19T04:38:21.881Z,12.95
2017-07-19T04:40:50.794Z,12.45
2017-07-19T04:43:19.710Z,11.63
2017-07-19T04:45:48.605Z,12.15
2017-07-19T04:48:17.513Z,12.93
2017-07-19T04:50:47.181Z,13.27
2017-07-19T04:53:16.077Z,12.43
2017-07-19T04:55:44.780Z,11.40
2017-07-19T04:58:13.490Z,12.02
2017-07-19T05:00:43.119Z,12.57
2017-07-19T05:03:12.094Z,13.02
2017-07-19T05:05:41.761Z,11.60
2017-07-19T05:08:10.676Z,11.57
2017-07-19T05:10:39.580Z,11.30
2017-07-19T05:13:08.448Z,12.10
2017-07-19T05:15:37.344Z,12.57
2017-07-19T05:18:06.250Z,12.40
2017-07-19T05:20:35.162Z,10.30
2017-07-19T05:23:05.662Z,10.38
2017-07-19T05:25:34.558Z,9.60
2017-07-19T05:28:05.566Z,9.32
2017-07-19T05:30:34.477Z,10.07
2017-07-19T05:33:03.369Z,9.75
2017-07-19T05:35:32.275Z,9.32
2017-07-19T05:38:01.180Z,8.93
2017-07-19T05:40:30.054Z,10.60
2017-07-19T05:42:58.960Z,9.93
2017-07-19T05:45:29.305Z,9.73
2017-07-19T05:47:58.989Z,10.18
2017-07-19T05:50:27.911Z,10.95
2017-07-19T05:52:56.829Z,9.90
2017-07-19T05:58:19.850Z,9.43
2017-07-19T06:00:48.770Z,9.45
2017-07-19T06:06:10.722Z,10.52
2017-07-19T06:08:39.630Z,10.10
2017-07-19T06:11:08.525Z,9.18
2017-07-19T06:13:37.413Z,9.55
2017-07-19T06:16:06.587Z,11.55
2017-07-19T06:18:35.490Z,9.80
2017-07-19T06:21:05.164Z,9.95
2017-07-19T06:23:34.069Z,10.45
2017-07-19T06:26:02.976Z,10.18
2017-07-19T06:28:31.888Z,10.02
2017-07-19T06:31:00.808Z,10.52
2017-07-19T06:33:29.741Z,10.50
2017-07-19T06:35:58.636Z,9.88
2017-07-19T06:38:28.325Z,10.30
2017-07-19T06:40:57.237Z,9.45
2017-07-19T06:43:26.909Z,9.70
2017-07-19T06:45:55.824Z,9.85
2017-07-19T06:48:24.736Z,9.02
2017-07-19T06:50:53.645Z,9.10
2017-07-19T06:56:08.254Z,9.35
2017-07-19T06:58:37.166Z,8.52
2017-07-19T07:01:06.098Z,9.27
2017-07-19T07:03:35.777Z,9.25
2017-07-19T07:06:04.656Z,9.65
2017-07-19T07:08:34.242Z,8.95
2017-07-19T07:11:03.129Z,7.57
2017-07-19T07:13:32.046Z,8.13
2017-07-19T07:16:01.191Z,8.70
2017-07-19T07:18:30.861Z,8.60
2017-07-19T07:20:59.766Z,8.82
2017-07-19T07:23:28.672Z,9.10
2017-07-19T07:25:59.230Z,9.25
2017-07-19T07:28:28.944Z,7.78
2017-07-19T07:30:57.854Z,9.40
2017-07-19T07:33:26.771Z,7.80
2017-07-19T07:35:55.678Z,8.18
2017-07-19T07:38:24.576Z,8.07
2017-07-19T07:40:54.269Z,7.62
2017-07-19T07:43:23.195Z,7.20
2017-07-19T07:45:52.113Z,7.12
2017-07-19T07:48:21.006Z,7.18
2017-07-19T07:51:07.993Z,6.75
2017-07-19T07:53:38.532Z,6.47
2017-07-19T07:56:07.442Z,6.80
2017-07-19T07:58:36.347Z,6.90
2017-07-19T08:01:05.212Z,6.87
2017-07-19T08:03:34.082Z,6.15
2017-07-19T08:06:03.010Z,5.85
2017-07-19T08:08:31.898Z,6.72
2017-07-19T08:11:00.824Z,5.25
2017-07-19T08:13:29.701Z,6.60
2017-07-19T08:15:58.565Z,5.47
2017-07-19T08:18:27.429Z,5.93
2017-07-19T08:20:56.324Z,5.40
2017-07-19T08:23:25.994Z,6.05
2017-07-19T08:25:54.888Z,5.45
2017-07-19T08:28:23.739Z,5.82
2017-07-19T08:30:52.648Z,5.75
2017-07-19T08:33:21.547Z,5.60
2017-07-19T08:35:50.178Z,4.90
2017-07-19T08:38:18.808Z,5.10
2017-07-19T08:40:47.432Z,5.30
2017-07-19T08:43:16.830Z,4.67
2017-07-19T08:45:47.057Z,4.57
2017-07-19T08:48:15.684Z,4.27
2017-07-19T08:50:44.328Z,4.80
2017-07-19T08:53:13.699Z,4.70
2017-07-19T08:55:42.323Z,5.80
2017-07-19T08:58:11.729Z,4.73
2017-07-19T09:00:40.465Z,5.10
2017-07-19T09:03:09.103Z,4.87
2017-07-19T09:05:37.745Z,4.50
2017-07-19T09:08:06.469Z,4.80
2017-07-19T09:10:35.890Z,5.00
2017-07-19T09:13:04.220Z,4.80
2017-07-19T09:15:32.843Z,4.17
2017-07-19T09:18:02.239Z,5.10
2017-07-19T09:20:30.866Z,4.57
2017-07-19T09:23:00.992Z,4.80
2017-07-19T09:25:29.631Z,4.70
2017-07-19T09:27:58.261Z,4.50
2017-07-19T09:30:26.881Z,4.63
2017-07-19T09:32:55.529Z,4.60
2017-07-19T09:35:24.175Z,3.93
2017-07-19T09:37:53.583Z,4.30
2017-07-19T09:40:22.987Z,4.40
2017-07-19T09:42:51.616Z,4.03
2017-07-19T09:45:20.256Z,4.07
2017-07-19T09:47:49.649Z,4.87
2017-07-19T09:50:19.031Z,4.10
2017-07-19T09:52:47.671Z,4.37
2017-07-19T09:55:16.303Z,4.03
2017-07-19T09:57:44.934Z,3.97
2017-07-19T10:00:13.571Z,3.67
2017-07-19T10:02:42.510Z,3.60
2017-07-19T10:05:11.142Z,3.90
2017-07-19T10:07:39.762Z,3.50
2017-07-19T10:10:09.117Z,4.47
2017-07-19T10:12:37.715Z,4.63
2017-07-19T10:15:06.337Z,3.70
2017-07-19T10:17:35.729Z,3.50
2017-07-19T10:20:04.339Z,3.90
2017-07-19T10:22:32.961Z,6.57
2017-07-19T10:25:01.585Z,3.77
2017-07-19T10:27:30.979Z,4.37
2017-07-19T10:29:59.591Z,4.17
2017-07-19T10:32:28.955Z,4.40
2017-07-19T10:34:57.578Z,4.47
2017-07-19T10:37:27.057Z,3.77
2017-07-19T10:39:55.682Z,3.57
2017-07-19T10:42:24.328Z,4.20
2017-07-19T10:44:52.958Z,4.07
2017-07-19T10:47:21.587Z,3.70
2017-07-19T10:49:50.213Z,4.60
2017-07-19T10:52:18.858Z,4.00
2017-07-19T10:54:47.486Z,4.30
2017-07-19T10:57:16.139Z,3.33
2017-07-19T10:59:44.757Z,3.70
2017-07-19T11:02:14.158Z,3.60
2017-07-19T11:04:42.787Z,3.67
2017-07-19T11:07:11.415Z,3.37
2017-07-19T11:09:40.795Z,3.27
2017-07-19T11:12:09.420Z,5.33
2017-07-19T11:14:38.805Z,3.87
2017-07-19T11:17:07.416Z,3.67
2017-07-19T11:19:36.040Z,3.80
2017-07-19T11:22:04.671Z,3.80
2017-07-19T11:24:34.053Z,3.30
2017-07-19T11:27:02.670Z,3.50
2017-07-19T11:29:31.165Z,3.60
2017-07-19T11:32:00.238Z,3.30
2017-07-19T11:34:29.639Z,3.57
2017-07-19T11:36:58.274Z,3.27
2017-07-19T11:39:26.902Z,3.80
2017-07-19T11:41:56.301Z,4.27
2017-07-19T11:44:24.912Z,3.47
2017-07-19T11:46:54.259Z,3.27
2017-07-19T11:49:22.877Z,3.43
2017-07-19T11:51:51.455Z,3.10
2017-07-19T11:54:20.072Z,3.50
2017-07-19T11:56:48.689Z,3.43
2017-07-19T11:59:17.304Z,2.90
2017-07-19T12:01:45.917Z,3.67
2017-07-19T12:04:15.385Z,3.00
2017-07-19T12:06:44.010Z,4.20
2017-07-19T12:09:13.403Z,3.50
2017-07-19T12:11:42.823Z,3.80
2017-07-19T12:14:12.200Z,3.30
2017-07-19T12:16:40.822Z,3.23
2017-07-19T12:19:09.441Z,3.60
2017-07-19T12:21:38.076Z,3.47
2017-07-19T12:24:07.475Z,3.60
2017-07-19T12:26:36.886Z,3.30
2017-07-19T12:29:05.508Z,3.20
2017-07-19T12:31:34.128Z,3.50
2017-07-19T12:34:02.764Z,4.00
2017-07-19T12:36:31.378Z,3.10
2017-07-19T12:38:59.992Z,3.93
2017-07-19T12:41:28.599Z,3.50
2017-07-19T12:43:57.224Z,4.20
2017-07-19T12:46:25.833Z,3.10
2017-07-19T12:48:54.444Z,3.33
2017-07-19T12:51:23.820Z,3.60
2017-07-19T12:53:52.442Z,3.70
2017-07-19T12:56:21.886Z,3.70
2017-07-19T12:58:50.474Z,4.13
2017-07-19T13:01:19.046Z,4.00
2017-07-19T13:03:47.790Z,3.60
2017-07-19T13:06:17.195Z,3.10
2017-07-19T13:08:46.547Z,3.83
2017-07-19T13:11:15.135Z,3.07
2017-07-19T13:13:43.761Z,3.57
2017-07-19T13:16:12.336Z,3.93
2017-07-19T13:18:40.949Z,3.17
2017-07-19T13:21:10.398Z,3.40
2017-07-19T13:23:39.034Z,3.37
2017-07-19T13:26:08.433Z,3.50
2017-07-19T13:28:37.821Z,3.73
2017-07-19T13:31:06.438Z,3.83
2017-07-19T13:33:35.058Z,2.80
2017-07-19T13:36:03.679Z,3.57
2017-07-19T13:38:32.258Z,3.10
2017-07-19T13:41:00.891Z,2.90
2017-07-19T13:43:29.513Z,3.40
2017-07-19T13:45:58.150Z,3.60
2017-07-19T13:48:26.795Z,3.83
2017-07-19T13:50:55.409Z,3.77
2017-07-19T13:53:24.814Z,3.50
2017-07-19T13:55:54.213Z,3.03
2017-07-19T13:58:23.627Z,2.73
2017-07-19T14:00:52.982Z,3.20
2017-07-19T14:03:21.615Z,2.97
2017-07-19T14:05:51.002Z,3.20
2017-07-19T14:08:20.390Z,3.20
2017-07-19T14:10:49.001Z,3.47
2017-07-19T14:13:18.386Z,3.47
2017-07-19T14:15:46.988Z,3.47
2017-07-19T14:18:16.389Z,2.83
2017-07-19T14:20:45.778Z,3.50
2017-07-19T14:23:14.406Z,2.93
2017-07-19T14:25:43.019Z,3.40
2017-07-19T14:28:11.646Z,3.40
2017-07-19T14:30:41.024Z,3.33
2017-07-19T14:33:09.647Z,3.40
2017-07-19T14:35:39.025Z,3.20
2017-07-19T14:38:07.642Z,3.00
2017-07-19T14:40:36.231Z,3.13
2017-07-19T14:43:04.854Z,3.60
2017-07-19T14:45:33.477Z,4.47
2017-07-19T14:48:02.818Z,3.67
2017-07-19T14:50:31.434Z,3.50
2017-07-19T14:53:00.044Z,3.30
2017-07-19T14:55:28.653Z,3.93
2017-07-19T14:57:58.033Z,3.60
2017-07-19T15:00:26.467Z,3.70
2017-07-19T15:02:55.101Z,3.90
2017-07-19T15:05:23.713Z,3.20
2017-07-19T15:07:52.310Z,3.63
2017-07-19T15:10:20.895Z,3.70
2017-07-19T15:12:49.514Z,4.20
2017-07-19T15:15:18.124Z,4.30
2017-07-19T15:17:46.701Z,3.47
2017-07-19T15:20:15.322Z,4.40
2017-07-19T15:22:43.939Z,3.30
2017-07-19T15:25:12.552Z,4.30
2017-07-19T15:27:41.171Z,3.53
2017-07-19T15:30:10.566Z,3.60
2017-07-19T15:32:39.970Z,3.50
2017-07-19T15:35:09.419Z,3.50
2017-07-19T15:37:38.047Z,3.63
2017-07-19T15:40:06.638Z,3.80
2017-07-19T15:42:35.994Z,4.43
2017-07-19T15:45:04.604Z,3.23
2017-07-19T15:47:33.230Z,3.33
2017-07-19T15:50:01.861Z,4.20
2017-07-19T15:52:30.477Z,3.70
2017-07-19T15:54:59.096Z,3.57
2017-07-19T15:57:27.708Z,4.57
2017-07-19T15:59:56.333Z,3.43
2017-07-19T16:02:24.963Z,4.27
2017-07-19T16:04:53.590Z,4.23
2017-07-19T16:07:22.222Z,3.70
2017-07-19T16:09:50.835Z,3.70
2017-07-19T16:12:19.418Z,3.30
2017-07-19T16:14:48.028Z,3.70
2017-07-19T16:17:16.651Z,4.03
2017-07-19T16:19:45.232Z,3.90
2017-07-19T16:22:13.849Z,3.90
2017-07-19T16:24:42.476Z,3.53
2017-07-19T16:27:11.107Z,3.87
2017-07-19T16:29:39.695Z,3.83
2017-07-19T16:32:08.320Z,4.57
2017-07-19T16:34:36.943Z,4.00
2017-07-19T16:37:06.325Z,4.20
2017-07-19T16:39:34.941Z,4.07
2017-07-19T16:42:04.246Z,4.20
2017-07-19T16:44:32.869Z,3.60
2017-07-19T16:47:01.464Z,4.50
2017-07-19T16:49:30.080Z,3.57
2017-07-19T16:51:59.475Z,3.53
2017-07-19T16:54:28.051Z,3.90
2017-07-19T16:56:56.670Z,4.13
2017-07-19T16:59:25.289Z,4.20
2017-07-19T17:01:54.425Z,4.33
2017-07-19T17:04:23.054Z,3.50
2017-07-19T17:06:51.670Z,3.73
2017-07-19T17:09:20.300Z,3.60
2017-07-19T17:11:48.937Z,3.73
2017-07-19T17:14:17.563Z,3.30
2017-07-19T17:16:46.962Z,3.53
2017-07-19T17:19:15.599Z,4.70
2017-07-19T17:21:44.273Z,3.23
2017-07-19T17:24:12.895Z,4.30
2017-07-19T17:26:42.437Z,4.33
2017-07-19T17:29:11.838Z,4.60
2017-07-19T17:31:41.259Z,4.20
2017-07-19T17:34:09.885Z,4.60
2017-07-19T17:36:38.500Z,4.53
2017-07-19T17:39:07.128Z,4.60
2017-07-19T17:41:35.918Z,4.37
2017-07-19T17:44:04.542Z,4.37
2017-07-19T17:46:33.160Z,4.03
2017-07-19T17:49:02.567Z,4.20
2017-07-19T17:51:35.395Z,4.40
2017-07-19T17:54:04.033Z,4.70
2017-07-19T17:59:09.390Z,4.60
2017-07-19T18:01:39.064Z,4.00
2017-07-19T18:04:07.688Z,5.53
2017-07-19T18:06:36.324Z,4.77
2017-07-19T18:09:04.265Z,4.37
2017-07-19T18:11:34.782Z,5.40
2017-07-19T18:14:03.397Z,4.43
2017-07-19T18:16:33.511Z,4.40
2017-07-19T18:19:02.128Z,5.70
2017-07-19T18:21:30.754Z,4.87
2017-07-19T18:23:59.382Z,4.43
2017-07-19T18:26:27.966Z,4.63
2017-07-19T18:28:56.601Z,4.57
2017-07-19T18:31:25.217Z,5.40
2017-07-19T18:33:53.842Z,4.73
2017-07-19T18:36:22.474Z,5.80
2017-07-19T18:38:51.093Z,5.43
2017-07-19T18:41:19.748Z,4.57
2017-07-19T18:43:48.386Z,4.37
2017-07-19T18:46:17.893Z,4.70
2017-07-19T18:48:46.553Z,4.93
2017-07-19T18:51:15.202Z,4.77
2017-07-19T18:53:43.826Z,5.20
2017-07-19T18:56:12.460Z,4.70
2017-07-19T19:01:23.806Z,5.00
2017-07-19T19:04:03.957Z,5.20
2017-07-19T19:06:33.476Z,5.53
2017-07-19T19:09:02.097Z,5.20
2017-07-19T19:11:31.207Z,5.43
2017-07-19T19:13:59.845Z,5.70
2017-07-19T19:16:28.464Z,5.00
2017-07-19T19:18:57.269Z,4.60
2017-07-19T19:21:25.908Z,5.50
2017-07-19T19:23:54.547Z,5.30
2017-07-19T19:26:26.949Z,5.57
2017-07-19T19:37:21.496Z,5.23
2017-07-19T19:39:50.117Z,5.40
2017-07-19T19:42:18.748Z,4.47
2017-07-19T19:44:47.411Z,5.47
2017-07-19T19:47:16.840Z,5.57
2017-07-19T19:49:45.460Z,6.53
2017-07-19T19:52:14.089Z,5.97
2017-07-19T19:54:43.476Z,6.23
2017-07-19T19:57:12.115Z,5.00
2017-07-19T19:59:55.955Z,6.13
2017-07-19T20:02:24.399Z,5.80
2017-07-19T20:04:53.780Z,5.83
2017-07-19T20:07:22.672Z,7.03
2017-07-19T20:09:53.561Z,4.83
2017-07-19T20:12:22.178Z,5.60
2017-07-19T20:14:50.821Z,6.10
2017-07-19T20:20:15.839Z,6.30
2017-07-19T20:22:45.222Z,5.77
2017-07-19T20:25:15.530Z,6.13
2017-07-19T20:30:58.997Z,6.00
2017-07-19T20:33:44.010Z,6.70
2017-07-19T20:36:23.855Z,6.70
2017-07-19T20:38:52.487Z,7.00
2017-07-19T20:41:21.117Z,6.67
2017-07-19T20:43:50.367Z,6.03
2017-07-19T20:46:19.162Z,6.33
2017-07-19T20:48:47.795Z,6.60
2017-07-19T20:51:16.436Z,7.63
2017-07-19T20:53:45.060Z,6.77
2017-07-19T20:56:13.724Z,6.87
2017-07-19T20:58:42.374Z,7.40
2017-07-19T21:01:10.746Z,7.00
2017-07-19T21:03:40.323Z,6.00
2017-07-19T21:06:08.955Z,6.60
2017-07-19T21:08:37.587Z,6.50
2017-07-19T21:11:06.211Z,7.03
2017-07-19T21:13:34.857Z,7.17
2017-07-19T21:16:04.252Z,6.63
2017-07-19T21:18:32.898Z,6.57
2017-07-19T21:21:01.535Z,7.20
2017-07-19T21:23:30.251Z,6.60
2017-07-19T21:26:03.110Z,7.13
2017-07-19T21:40:40.758Z,7.87
2017-07-19T22:11:07.516Z,7.23
2017-07-19T22:16:33.310Z,7.57
2017-07-19T22:19:16.327Z,7.70
2017-07-19T22:21:53.213Z,7.30
2017-07-19T22:34:08.761Z,7.80
2017-07-19T22:36:39.109Z,6.70
2017-07-19T22:39:10.205Z,6.40
2017-07-19T22:41:39.897Z,7.45
2017-07-19T22:44:09.689Z,5.85
2017-07-19T22:46:41.263Z,4.70
2017-07-19T22:49:13.322Z,4.18
2017-07-19T22:51:45.971Z,3.22
2017-07-19T23:26:30.179Z,1.87
2017-07-19T23:28:59.221Z,2.25
2017-07-19T23:31:28.885Z,2.08
2017-07-19T23:33:57.771Z,2.20
2017-07-19T23:36:26.399Z,2.22
2017-07-19T23:38:55.278Z,2.33
2017-07-19T23:41:24.160Z,2.80
2017-07-19T23:43:53.045Z,2.90
2017-07-19T23:46:22.194Z,2.37
2017-07-19T23:48:51.913Z,2.28
2017-07-19T23:51:20.814Z,2.90
2017-07-19T23:53:54.792Z,5.55
2017-07-19T23:56:33.591Z,8.80
